createdAt,value
2023-04-09T00:01:43.293Z,7.00
2023-04-09T00:04:10.593Z,7.00
2023-04-09T00:06:38.370Z,7.00
2023-04-09T00:09:05.998Z,7.00
2023-04-09T00:11:33.572Z,7.00
2023-04-09T00:14:00.807Z,6.90
2023-04-09T00:16:28.019Z,6.90
2023-04-09T00:18:56.243Z,6.90
2023-04-09T00:21:23.575Z,6.90
2023-04-09T00:23:51.425Z,6.90
2023-04-09T00:26:18.962Z,6.90
2023-04-09T00:28:46.815Z,6.90
2023-04-09T00:31:13.998Z,6.90
2023-04-09T00:33:41.255Z,6.90
2023-04-09T00:36:08.556Z,6.90
2023-04-09T00:38:36.006Z,6.90
2023-04-09T00:41:03.214Z,6.90
2023-04-09T00:43:30.629Z,6.90
2023-04-09T00:45:59.426Z,6.90
2023-04-09T00:48:27.469Z,6.90
2023-04-09T00:50:54.860Z,6.90
2023-04-09T00:53:22.146Z,6.90
2023-04-09T00:55:49.492Z,6.90
2023-04-09T00:58:17.012Z,6.90
2023-04-09T01:00:44.167Z,6.90
2023-04-09T01:03:12.009Z,6.90
2023-04-09T01:06:11.921Z,6.90
2023-04-09T01:08:49.174Z,6.90
2023-04-09T01:11:37.946Z,6.90
2023-04-09T01:14:34.872Z,6.90
2023-04-09T01:17:12.295Z,6.90
2023-04-09T01:20:05.365Z,6.90
2023-04-09T01:22:50.828Z,6.90
2023-04-09T01:25:43.617Z,6.90
2023-04-09T01:28:24.422Z,6.90
2023-04-09T01:30:59.605Z,6.90
2023-04-09T01:33:27.727Z,6.90
2023-04-09T01:35:59.317Z,6.90
2023-04-09T01:38:28.835Z,6.90
2023-04-09T01:40:57.356Z,6.80
2023-04-09T01:43:26.281Z,6.90
2023-04-09T01:45:55.089Z,6.90
2023-04-09T01:48:23.607Z,6.90
2023-04-09T01:50:51.894Z,6.90
2023-04-09T01:53:22.347Z,6.90
2023-04-09T01:55:49.586Z,6.90
2023-04-09T01:58:16.788Z,6.90
2023-04-09T02:00:47.926Z,6.90
2023-04-09T02:03:28.372Z,6.80
2023-04-09T02:06:11.333Z,6.80
2023-04-09T02:08:39.202Z,6.90
2023-04-09T02:11:10.597Z,6.80
2023-04-09T02:13:41.225Z,6.80
2023-04-09T02:16:11.304Z,6.90
2023-04-09T02:18:38.761Z,6.80
2023-04-09T02:21:06.522Z,6.80
2023-04-09T02:23:34.940Z,6.80
2023-04-09T02:26:02.517Z,6.80
2023-04-09T02:28:29.676Z,6.80
2023-04-09T02:30:56.917Z,6.80
2023-04-09T02:33:24.170Z,6.80
2023-04-09T02:35:51.470Z,6.80
2023-04-09T02:38:20.033Z,6.80
2023-04-09T02:40:47.553Z,6.80
2023-04-09T02:43:15.763Z,6.80
2023-04-09T02:45:43.493Z,6.80
2023-04-09T02:48:10.937Z,6.80
2023-04-09T02:50:38.424Z,6.80
2023-04-09T02:53:05.801Z,6.70
2023-04-09T02:55:32.983Z,6.80
2023-04-09T02:58:00.517Z,6.70
2023-04-09T03:00:27.795Z,6.70
2023-04-09T03:02:56.583Z,6.70
2023-04-09T03:05:24.149Z,6.70
2023-04-09T03:07:51.537Z,6.70
2023-04-09T03:10:18.935Z,6.70
2023-04-09T03:12:47.775Z,6.70
2023-04-09T03:15:15.213Z,6.70
2023-04-09T03:17:42.413Z,6.70
2023-04-09T03:20:09.832Z,6.70
2023-04-09T03:22:39.658Z,6.70
2023-04-09T03:25:29.999Z,6.70
2023-04-09T03:27:58.047Z,6.70
2023-04-09T03:30:47.307Z,6.70
2023-04-09T03:33:15.497Z,6.70
2023-04-09T03:35:57.982Z,6.70
2023-04-09T03:38:40.840Z,6.70
2023-04-09T03:41:15.977Z,6.70
2023-04-09T03:43:43.459Z,6.70
2023-04-09T03:46:14.813Z,6.70
2023-04-09T03:48:44.840Z,6.70
2023-04-09T03:51:14.296Z,6.70
2023-04-09T03:53:46.441Z,6.70
2023-04-09T03:56:14.192Z,6.70
2023-04-09T03:58:41.737Z,6.70
2023-04-09T04:01:10.654Z,6.70
2023-04-09T04:03:44.153Z,6.70
2023-04-09T04:06:27.188Z,6.70
2023-04-09T04:09:03.190Z,6.70
2023-04-09T04:11:43.449Z,6.70
2023-04-09T04:14:11.240Z,6.70
2023-04-09T04:16:41.400Z,6.70
2023-04-09T04:19:08.951Z,6.70
2023-04-09T04:21:43.267Z,6.70
2023-04-09T04:24:10.547Z,6.70
2023-04-09T04:26:39.313Z,6.70
2023-04-09T04:29:07.029Z,6.70
2023-04-09T04:32:10.153Z,6.70
2023-04-09T04:34:38.501Z,6.70
2023-04-09T04:37:15.535Z,6.70
2023-04-09T04:39:42.886Z,6.70
2023-04-09T04:42:14.862Z,6.70
2023-04-09T04:44:43.401Z,6.70
2023-04-09T04:47:29.016Z,6.70
2023-04-09T04:49:56.247Z,6.70
2023-04-09T04:52:23.583Z,6.80
2023-04-09T04:54:53.355Z,6.80
2023-04-09T04:57:24.005Z,6.80
2023-04-09T04:59:51.393Z,6.80
2023-04-09T05:02:19.624Z,6.80
2023-04-09T05:05:10.286Z,6.80
2023-04-09T05:07:44.582Z,6.90
2023-04-09T05:10:12.622Z,6.90
2023-04-09T05:12:42.701Z,6.90
2023-04-09T05:15:12.190Z,6.90
2023-04-09T05:17:42.489Z,6.90
2023-04-09T05:20:10.638Z,6.90
2023-04-09T05:22:50.970Z,6.90
2023-04-09T05:25:18.582Z,7.00
2023-04-09T05:27:46.264Z,7.00
2023-04-09T05:30:14.040Z,7.00
2023-04-09T05:32:42.618Z,7.10
2023-04-09T05:35:10.823Z,7.20
2023-04-09T05:37:41.606Z,7.20
2023-04-09T05:40:09.631Z,7.20
2023-04-09T05:42:37.865Z,7.30
2023-04-09T05:45:11.824Z,7.40
2023-04-09T05:47:47.379Z,7.40
2023-04-09T05:50:19.748Z,7.50
2023-04-09T05:52:49.595Z,7.60
2023-04-09T05:55:17.172Z,7.70
2023-04-09T05:57:49.033Z,7.80
2023-04-09T06:00:18.286Z,7.90
2023-04-09T06:02:46.402Z,8.00
2023-04-09T06:05:13.998Z,8.10
2023-04-09T06:07:41.275Z,8.10
2023-04-09T06:10:08.783Z,8.10
2023-04-09T06:12:36.318Z,8.20
2023-04-09T06:15:05.444Z,8.30
2023-04-09T06:17:33.394Z,8.30
2023-04-09T06:20:00.896Z,8.30
2023-04-09T06:22:28.155Z,8.30
2023-04-09T06:24:55.715Z,8.30
2023-04-09T06:27:23.677Z,8.30
2023-04-09T06:29:51.348Z,8.30
2023-04-09T06:32:18.808Z,8.40
2023-04-09T06:34:46.636Z,8.40
2023-04-09T06:37:13.859Z,8.40
2023-04-09T06:39:47.653Z,8.40
2023-04-09T06:42:26.608Z,8.40
2023-04-09T06:45:11.371Z,8.50
2023-04-09T06:47:38.709Z,8.70
2023-04-09T06:50:07.194Z,8.80
2023-04-09T06:52:34.502Z,9.00
2023-04-09T06:55:01.847Z,9.20
2023-04-09T06:57:29.600Z,9.30
2023-04-09T06:59:57.225Z,9.40
2023-04-09T07:02:24.781Z,9.50
2023-04-09T07:04:52.268Z,9.50
2023-04-09T07:07:20.849Z,9.50
2023-04-09T07:09:48.829Z,9.50
2023-04-09T07:12:29.645Z,9.60
2023-04-09T07:15:01.436Z,9.70
2023-04-09T07:17:29.214Z,9.90
2023-04-09T07:19:57.047Z,10.20
2023-04-09T07:22:26.751Z,10.60
2023-04-09T07:24:55.230Z,11.20
2023-04-09T07:27:23.484Z,11.30
2023-04-09T07:29:51.095Z,11.00
2023-04-09T07:32:19.165Z,10.70
2023-04-09T07:34:46.666Z,10.50
2023-04-09T07:37:14.173Z,10.50
2023-04-09T07:39:42.470Z,10.50
2023-04-09T07:42:09.693Z,10.70
2023-04-09T07:44:36.993Z,11.10
2023-04-09T07:47:05.659Z,11.60
2023-04-09T07:49:35.161Z,12.10
2023-04-09T07:52:03.904Z,12.70
2023-04-09T07:54:31.691Z,13.10
2023-04-09T07:56:59.479Z,13.20
2023-04-09T07:59:27.754Z,13.10
2023-04-09T08:01:55.284Z,13.20
2023-04-09T08:04:22.820Z,13.50
2023-04-09T08:06:51.666Z,13.70
2023-04-09T08:09:19.593Z,13.70
2023-04-09T08:11:47.890Z,13.70
2023-04-09T08:14:16.236Z,13.60
2023-04-09T08:16:46.070Z,13.50
2023-04-09T08:19:15.707Z,13.40
2023-04-09T08:21:43.865Z,13.50
2023-04-09T08:24:12.293Z,13.60
2023-04-09T08:26:42.047Z,13.70
2023-04-09T08:29:12.226Z,14.00
2023-04-09T08:31:39.933Z,14.30
2023-04-09T08:34:07.246Z,14.40
2023-04-09T08:36:35.634Z,14.30
2023-04-09T08:39:03.929Z,14.50
2023-04-09T08:41:31.606Z,14.60
2023-04-09T08:43:59.968Z,14.90
2023-04-09T08:46:28.471Z,14.70
2023-04-09T08:48:56.074Z,15.00
2023-04-09T08:51:24.545Z,15.30
2023-04-09T08:54:03.720Z,15.60
2023-04-09T08:56:31.918Z,15.70
2023-04-09T08:58:59.210Z,16.00
2023-04-09T09:01:31.994Z,16.20
2023-04-09T09:04:07.299Z,16.20
2023-04-09T09:06:40.940Z,16.90
2023-04-09T09:09:16.500Z,17.40
2023-04-09T09:11:45.801Z,17.90
2023-04-09T09:14:15.963Z,18.10
2023-04-09T09:17:03.552Z,18.00
2023-04-09T09:19:36.261Z,18.10
2023-04-09T11:25:32.739Z,19.90
2023-04-09T11:55:26.691Z,32.10
2023-04-09T11:58:00.739Z,33.10
2023-04-09T12:00:28.871Z,31.30
2023-04-09T12:03:04.402Z,29.80
2023-04-09T12:08:04.943Z,29.80
2023-04-09T12:10:35.364Z,31.50
2023-04-09T12:13:05.376Z,31.10
2023-04-09T12:15:38.374Z,29.30
2023-04-09T13:07:37.498Z,31.10
2023-04-09T13:10:05.389Z,35.00
2023-04-09T13:12:32.704Z,32.60
2023-04-09T13:15:00.521Z,31.30
2023-04-09T13:17:27.816Z,31.20
2023-04-09T13:19:55.002Z,30.70
2023-04-09T13:22:22.611Z,32.30
2023-04-09T13:24:49.771Z,31.20
2023-04-09T13:27:17.602Z,30.40
2023-04-09T13:29:44.826Z,31.10
2023-04-09T13:32:12.003Z,30.40
2023-04-09T13:47:14.158Z,30.40
2023-04-09T13:49:42.288Z,33.60
2023-04-09T13:52:10.542Z,31.70
2023-04-09T13:54:38.091Z,31.80
2023-04-09T13:57:05.399Z,31.50
2023-04-09T13:59:33.256Z,32.40
2023-04-09T14:02:00.764Z,31.80
2023-04-09T14:04:28.147Z,30.90
2023-04-09T14:06:57.139Z,29.50
2023-04-09T14:09:24.556Z,28.40
2023-04-09T14:11:54.551Z,27.60
2023-04-09T14:14:21.745Z,29.90
2023-04-09T14:16:50.277Z,30.60
2023-04-09T14:19:17.571Z,30.70
2023-04-09T14:21:44.775Z,30.60
2023-04-09T14:24:12.079Z,30.30
2023-04-09T14:26:39.211Z,29.60
2023-04-09T14:29:06.660Z,30.60
2023-04-09T14:31:33.865Z,28.40
2023-04-09T14:34:01.106Z,26.70
2023-04-09T14:36:28.356Z,25.30
2023-04-09T14:38:57.593Z,24.40
2023-04-09T14:41:26.178Z,23.80
2023-04-09T14:43:53.425Z,23.60
2023-04-09T14:46:21.927Z,23.30
2023-04-09T14:48:49.444Z,23.80
2023-04-09T14:51:17.333Z,25.40
2023-04-09T14:53:44.511Z,25.40
2023-04-09T14:56:12.385Z,26.30
2023-04-09T14:58:39.640Z,26.30
2023-04-09T15:01:06.877Z,26.20
2023-04-09T15:03:34.241Z,26.10
2023-04-09T15:06:01.583Z,25.90
2023-04-09T15:08:28.855Z,25.50
2023-04-09T15:10:56.007Z,25.20
2023-04-09T15:13:24.023Z,24.70
2023-04-09T15:15:51.379Z,24.30
2023-04-09T15:18:21.301Z,24.00
2023-04-09T15:20:50.407Z,23.40
2023-04-09T15:23:17.652Z,22.90
2023-04-09T15:25:45.442Z,22.50
2023-04-09T15:28:14.319Z,21.90
2023-04-09T15:30:41.811Z,21.30
2023-04-09T15:33:09.201Z,20.70
2023-04-09T15:35:36.555Z,20.30
2023-04-09T15:38:03.842Z,20.00
2023-04-09T15:40:31.903Z,19.90
2023-04-09T15:42:59.441Z,19.90
2023-04-09T15:45:27.121Z,19.90
2023-04-09T15:47:55.255Z,19.70
2023-04-09T15:50:22.916Z,19.30
2023-04-09T15:52:50.396Z,19.20
2023-04-09T15:55:18.493Z,19.00
2023-04-09T15:57:46.763Z,18.90
2023-04-09T16:00:15.477Z,18.90
2023-04-09T16:02:43.189Z,18.80
2023-04-09T16:05:10.764Z,18.70
2023-04-09T16:07:39.546Z,18.60
2023-04-09T16:10:07.472Z,18.30
2023-04-09T16:12:34.930Z,18.20
2023-04-09T16:15:02.445Z,18.00
2023-04-09T16:17:30.888Z,17.80
2023-04-09T16:19:58.450Z,17.80
2023-04-09T16:22:25.958Z,17.80
2023-04-09T16:24:53.311Z,17.60
2023-04-09T16:27:20.762Z,17.30
2023-04-09T16:29:48.077Z,17.00
2023-04-09T16:32:15.420Z,16.50
2023-04-09T16:34:42.669Z,16.10
2023-04-09T16:37:09.955Z,15.80
2023-04-09T16:39:37.311Z,15.60
2023-04-09T16:42:04.823Z,15.40
2023-04-09T16:44:32.124Z,15.30
2023-04-09T16:47:01.026Z,15.00
2023-04-09T16:49:28.485Z,14.90
2023-04-09T16:51:57.080Z,14.80
2023-04-09T16:54:24.716Z,14.70
2023-04-09T16:56:53.193Z,14.40
2023-04-09T16:59:21.373Z,14.30
2023-04-09T17:01:49.658Z,14.20
2023-04-09T17:04:17.862Z,14.20
2023-04-09T17:06:45.772Z,14.20
2023-04-09T17:09:13.171Z,14.10
2023-04-09T17:11:40.885Z,14.00
2023-04-09T17:14:08.295Z,13.90
2023-04-09T17:16:37.310Z,13.70
2023-04-09T17:19:05.090Z,13.50
2023-04-09T17:21:33.181Z,13.40
2023-04-09T17:24:02.710Z,13.20
2023-04-09T17:26:30.065Z,13.00
2023-04-09T17:28:58.476Z,12.90
2023-04-09T17:31:26.725Z,12.90
2023-04-09T17:33:54.380Z,12.90
2023-04-09T17:36:22.855Z,12.80
2023-04-09T17:38:52.612Z,12.70
2023-04-09T17:41:20.874Z,12.60
2023-04-09T17:43:48.703Z,12.60
2023-04-09T17:46:17.208Z,12.60
2023-04-09T17:48:44.768Z,12.70
2023-04-09T17:51:16.248Z,12.70
2023-04-09T17:53:44.187Z,12.70
2023-04-09T17:56:18.034Z,12.60
2023-04-09T17:58:46.382Z,12.50
2023-04-09T18:01:14.030Z,12.30
2023-04-09T18:03:48.779Z,12.20
2023-04-09T18:06:17.305Z,11.90
2023-04-09T18:08:44.962Z,11.70
2023-04-09T18:11:15.353Z,11.40
2023-04-09T18:13:42.864Z,11.30
2023-04-09T18:16:13.469Z,11.10
2023-04-09T18:18:41.310Z,10.90
2023-04-09T18:21:09.605Z,10.60
2023-04-09T18:23:36.975Z,10.40
2023-04-09T18:26:04.547Z,10.30
2023-04-09T18:28:32.072Z,10.10
2023-04-09T18:30:59.520Z,10.10
2023-04-09T18:33:27.033Z,10.00
2023-04-09T18:35:54.884Z,9.80
2023-04-09T18:38:22.546Z,9.70
2023-04-09T18:40:50.223Z,9.60
2023-04-09T18:43:17.521Z,9.50
2023-04-09T18:45:44.854Z,9.40
2023-04-09T18:48:12.633Z,9.30
2023-04-09T18:50:39.959Z,9.30
2023-04-09T18:53:07.509Z,9.20
2023-04-09T18:55:38.006Z,9.20
2023-04-09T18:58:12.530Z,9.10
2023-04-09T19:00:39.927Z,8.90
2023-04-09T19:03:08.686Z,8.90
2023-04-09T19:05:36.199Z,8.90
2023-04-09T19:08:06.729Z,8.90
2023-04-09T19:10:34.048Z,8.70
2023-04-09T19:13:02.238Z,8.60
2023-04-09T19:15:29.795Z,8.40
2023-04-09T19:17:57.437Z,8.30
2023-04-09T19:20:24.843Z,8.10
2023-04-09T19:22:54.442Z,8.00
2023-04-09T19:25:22.778Z,7.90
2023-04-09T19:27:50.541Z,7.80
2023-04-09T19:30:17.905Z,7.70
2023-04-09T19:32:46.248Z,7.60
2023-04-09T19:35:13.687Z,7.60
2023-04-09T19:37:41.112Z,7.50
2023-04-09T19:40:09.903Z,7.50
2023-04-09T19:42:37.984Z,7.60
2023-04-09T19:45:05.846Z,7.60
2023-04-09T19:47:34.696Z,7.60
2023-04-09T19:50:02.246Z,7.70
2023-04-09T19:52:31.607Z,7.60
2023-04-09T19:55:01.844Z,7.60
2023-04-09T19:57:33.415Z,7.60
2023-04-09T20:00:02.301Z,7.50
2023-04-09T20:02:41.389Z,7.40
2023-04-09T20:05:10.372Z,7.40
2023-04-09T20:07:38.890Z,7.50
2023-04-09T20:10:06.842Z,7.50
2023-04-09T20:12:34.433Z,7.40
2023-04-09T20:15:02.390Z,7.30
2023-04-09T20:17:29.765Z,7.30
2023-04-09T20:19:57.162Z,7.30
2023-04-09T20:22:24.628Z,7.20
2023-04-09T20:24:52.559Z,7.10
2023-04-09T20:27:21.956Z,7.00
2023-04-09T20:29:49.558Z,7.00
2023-04-09T20:32:17.030Z,6.90
2023-04-09T20:34:44.510Z,6.80
2023-04-09T20:37:11.903Z,6.70
2023-04-09T20:39:39.198Z,6.70
2023-04-09T20:42:06.406Z,6.60
2023-04-09T20:44:35.802Z,6.50
2023-04-09T20:47:03.062Z,6.40
2023-04-09T20:49:30.557Z,6.40
2023-04-09T20:51:58.199Z,6.30
2023-04-09T20:54:25.745Z,6.30
2023-04-09T20:56:52.959Z,6.30
2023-04-09T20:59:20.261Z,6.30
2023-04-09T21:01:48.213Z,6.30
2023-04-09T21:04:16.081Z,6.30
2023-04-09T21:06:43.505Z,6.40
2023-04-09T21:09:12.440Z,6.50
2023-04-09T21:11:39.769Z,6.60
2023-04-09T21:14:07.888Z,6.60
2023-04-09T21:16:36.426Z,6.60
2023-04-09T21:19:07.100Z,6.60
2023-04-09T21:21:34.991Z,6.50
2023-04-09T21:24:02.520Z,6.50
2023-04-09T21:26:38.674Z,6.50
2023-04-09T21:29:16.166Z,6.30
2023-04-09T21:31:43.409Z,6.20
2023-04-09T21:34:11.454Z,6.00
2023-04-09T21:36:39.673Z,5.80
2023-04-09T21:39:07.645Z,5.70
2023-04-09T21:41:35.390Z,5.60
2023-04-09T21:44:08.019Z,5.70
2023-04-09T21:46:41.411Z,5.70
2023-04-09T21:49:08.763Z,5.70
2023-04-09T21:51:36.526Z,5.70
2023-04-09T21:54:04.975Z,5.70
2023-04-09T21:56:33.466Z,5.60
2023-04-09T21:59:01.195Z,5.60
2023-04-09T22:01:30.538Z,5.60
2023-04-09T22:03:59.475Z,5.60
2023-04-09T22:06:29.871Z,5.50
2023-04-09T22:08:57.959Z,5.40
2023-04-09T22:11:28.111Z,5.20
2023-04-09T22:13:57.593Z,5.20
2023-04-09T22:16:25.774Z,5.10
2023-04-09T22:18:54.835Z,5.10
2023-04-09T22:21:22.729Z,5.00
2023-04-09T22:23:50.468Z,5.00
2023-04-09T22:26:18.322Z,5.00
2023-04-09T22:28:45.631Z,5.10
2023-04-09T22:31:12.961Z,5.00
2023-04-09T22:33:40.341Z,4.90
2023-04-09T22:36:08.143Z,4.90
2023-04-09T22:38:35.955Z,4.90
2023-04-09T22:41:05.800Z,5.00
2023-04-09T22:43:36.091Z,5.00
2023-04-09T22:46:03.449Z,5.00
2023-04-09T22:48:30.842Z,5.00
2023-04-09T22:50:58.618Z,5.10
2023-04-09T22:53:26.319Z,5.00
2023-04-09T22:55:58.498Z,4.90
2023-04-09T22:58:25.673Z,4.80
2023-04-09T23:00:53.514Z,4.60
2023-04-09T23:03:23.069Z,4.50
2023-04-09T23:05:50.744Z,4.40
2023-04-09T23:08:17.929Z,4.30
2023-04-09T23:10:45.908Z,4.20
2023-04-09T23:13:17.983Z,4.20
2023-04-09T23:15:47.806Z,4.20
2023-04-09T23:18:15.239Z,4.20
2023-04-09T23:20:43.083Z,4.10
2023-04-09T23:23:11.826Z,4.00
2023-04-09T23:25:42.217Z,3.90
2023-04-09T23:28:10.217Z,3.80
2023-04-09T23:30:37.469Z,3.70
2023-04-09T23:33:04.859Z,3.60
2023-04-09T23:35:32.600Z,3.60
2023-04-09T23:38:02.007Z,3.50
2023-04-09T23:40:29.300Z,3.50
2023-04-09T23:42:56.544Z,3.40
2023-04-09T23:45:23.741Z,3.40
2023-04-09T23:47:51.387Z,3.30
2023-04-09T23:50:18.790Z,3.50
2023-04-09T23:52:48.828Z,3.60
2023-04-09T23:55:16.323Z,3.50
2023-04-09T23:57:43.662Z,3.60
